createdAt,value
2022-10-26T00:01:15.198Z,358.88
2022-10-26T00:03:44.755Z,229.73
2022-10-26T00:06:17.566Z,365.52
2022-10-26T00:08:46.288Z,357.75
2022-10-26T00:11:14.791Z,292.30
2022-10-26T00:13:43.355Z,307.45
2022-10-26T00:16:20.942Z,282.95
2022-10-26T00:18:48.607Z,279.17
2022-10-26T00:21:16.598Z,292.73
2022-10-26T00:23:44.012Z,246.50
2022-10-26T00:26:12.338Z,283.60
2022-10-26T00:28:40.388Z,226.30
2022-10-26T00:31:13.871Z,243.43
2022-10-26T00:33:42.001Z,249.77
2022-10-26T00:36:10.520Z,242.02
2022-10-26T00:38:38.423Z,298.63
2022-10-26T00:41:06.396Z,272.60
2022-10-26T00:43:36.070Z,208.75
2022-10-26T00:46:08.052Z,185.60
2022-10-26T00:48:39.057Z,184.68
2022-10-26T00:51:13.693Z,197.30
2022-10-26T00:53:41.910Z,152.35
2022-10-26T00:56:09.846Z,247.15
2022-10-26T00:58:39.148Z,218.48
2022-10-26T01:01:06.690Z,187.20
2022-10-26T01:03:36.150Z,171.80
2022-10-26T01:06:05.675Z,138.13
2022-10-26T01:08:33.434Z,204.05
2022-10-26T01:11:01.698Z,134.52
2022-10-26T01:13:31.843Z,123.72
2022-10-26T01:16:17.311Z,322.27
2022-10-26T01:19:08.823Z,222.93
2022-10-26T01:21:48.002Z,159.85
2022-10-26T01:24:21.999Z,125.43
2022-10-26T01:27:09.671Z,133.75
2022-10-26T01:29:56.032Z,97.05
2022-10-26T01:32:30.716Z,127.65
2022-10-26T01:35:09.011Z,125.75
2022-10-26T01:37:41.807Z,96.30
2022-10-26T01:40:09.231Z,102.80
2022-10-26T01:42:41.981Z,89.82
2022-10-26T01:45:11.861Z,141.80
2022-10-26T01:47:40.129Z,143.93
2022-10-26T01:50:09.166Z,128.25
2022-10-26T01:52:36.520Z,107.60
2022-10-26T01:55:06.282Z,91.53
2022-10-26T01:57:36.622Z,169.95
2022-10-26T02:00:07.826Z,99.32
2022-10-26T02:02:59.530Z,145.32
2022-10-26T02:05:48.224Z,133.68
2022-10-26T02:08:28.961Z,134.95
2022-10-26T02:11:12.865Z,127.13
2022-10-26T02:14:18.682Z,133.18
2022-10-26T02:17:08.164Z,158.88
2022-10-26T02:19:50.793Z,165.90
2022-10-26T02:22:31.953Z,209.10
2022-10-26T02:25:01.748Z,153.82
2022-10-26T02:27:37.022Z,196.45
2022-10-26T02:30:06.405Z,171.90
2022-10-26T02:32:37.714Z,223.93
2022-10-26T02:35:06.310Z,173.38
2022-10-26T02:37:35.830Z,253.40
2022-10-26T02:40:09.179Z,328.95
2022-10-26T02:42:39.315Z,208.00
2022-10-26T02:45:14.615Z,295.00
2022-10-26T02:47:42.330Z,394.35
2022-10-26T02:50:10.068Z,242.38
2022-10-26T02:53:16.548Z,368.30
2022-10-26T02:55:49.739Z,308.38
2022-10-26T02:58:26.133Z,295.05
2022-10-26T03:00:54.240Z,420.73
2022-10-26T03:03:22.532Z,424.33
2022-10-26T03:05:50.178Z,342.15
2022-10-26T03:08:18.117Z,413.73
2022-10-26T03:10:46.460Z,493.58
2022-10-26T03:13:14.296Z,483.92
2022-10-26T03:15:42.186Z,522.50
2022-10-26T03:18:09.514Z,495.95
2022-10-26T03:20:37.881Z,486.13
2022-10-26T03:23:05.354Z,535.22
2022-10-26T03:25:32.860Z,563.42
2022-10-26T03:28:02.197Z,548.78
2022-10-26T03:30:30.824Z,423.65
2022-10-26T03:32:58.547Z,516.45
2022-10-26T03:35:25.967Z,699.60
2022-10-26T03:37:53.578Z,549.50
2022-10-26T03:40:21.101Z,598.50
2022-10-26T03:42:48.877Z,490.40
2022-10-26T03:45:16.617Z,647.60
2022-10-26T03:47:45.731Z,387.38
2022-10-26T03:50:15.650Z,354.25
2022-10-26T03:52:43.318Z,154.43
2022-10-26T03:55:12.645Z,152.52
2022-10-26T03:57:44.643Z,353.38
2022-10-26T04:00:15.639Z,62.88
2022-10-26T04:02:53.544Z,108.15
2022-10-26T04:05:21.079Z,55.60
2022-10-26T04:07:55.950Z,90.10
2022-10-26T04:10:24.770Z,92.85
2022-10-26T04:12:54.360Z,96.18
2022-10-26T04:15:23.082Z,36.05
2022-10-26T04:17:59.511Z,52.30
2022-10-26T04:20:29.119Z,61.05
2022-10-26T04:23:04.515Z,34.50
2022-10-26T04:25:33.756Z,45.10
2022-10-26T04:28:03.515Z,39.92
2022-10-26T04:30:32.159Z,42.90
2022-10-26T04:32:59.839Z,31.27
2022-10-26T04:35:28.166Z,39.25
2022-10-26T04:38:04.418Z,30.38
2022-10-26T04:40:33.332Z,33.90
2022-10-26T04:43:00.982Z,33.63
2022-10-26T04:45:32.124Z,36.58
2022-10-26T04:48:04.373Z,217.00
2022-10-26T04:50:32.107Z,105.65
2022-10-26T04:52:59.851Z,193.05
2022-10-26T04:55:27.254Z,313.67
2022-10-26T04:57:57.143Z,266.98
2022-10-26T05:00:27.787Z,349.40
2022-10-26T05:03:02.773Z,261.40
2022-10-26T05:05:31.994Z,111.68
2022-10-26T05:08:00.110Z,109.40
2022-10-26T05:10:28.702Z,36.65
2022-10-26T05:12:58.518Z,42.58
2022-10-26T05:15:26.876Z,59.70
2022-10-26T05:18:23.014Z,163.88
2022-10-26T05:20:54.567Z,354.80
2022-10-26T05:23:24.156Z,464.83
2022-10-26T05:25:51.737Z,291.27
2022-10-26T05:28:20.955Z,523.20
2022-10-26T05:30:48.627Z,581.75
2022-10-26T05:33:18.933Z,520.47
2022-10-26T05:35:46.404Z,341.60
2022-10-26T05:38:19.919Z,458.92
2022-10-26T05:40:51.870Z,528.67
2022-10-26T05:43:20.940Z,619.22
2022-10-26T05:45:50.509Z,378.73
2022-10-26T05:48:19.017Z,352.77
2022-10-26T05:50:46.975Z,605.38
2022-10-26T05:53:14.554Z,535.35
2022-10-26T05:55:42.766Z,355.52
2022-10-26T05:58:12.335Z,427.70
2022-10-26T06:01:01.917Z,311.77
2022-10-26T06:03:44.734Z,503.00
2022-10-26T06:06:15.544Z,433.73
2022-10-26T06:08:43.337Z,465.85
2022-10-26T06:11:11.372Z,572.35
2022-10-26T06:13:38.988Z,522.50
2022-10-26T06:16:06.804Z,306.55
2022-10-26T06:19:05.759Z,521.22
2022-10-26T06:22:03.501Z,492.48
2022-10-26T06:24:39.962Z,348.10
2022-10-26T06:27:33.419Z,616.13
2022-10-26T06:30:13.887Z,646.08
2022-10-26T06:32:47.330Z,662.22
2022-10-26T06:35:45.513Z,534.65
2022-10-26T06:38:24.288Z,527.45
2022-10-26T06:40:55.637Z,298.75
2022-10-26T06:43:29.345Z,273.35
2022-10-26T06:46:28.562Z,372.15
2022-10-26T06:49:32.332Z,506.20
2022-10-26T06:52:15.260Z,307.08
2022-10-26T06:54:47.961Z,418.88
2022-10-26T06:57:17.897Z,285.25
2022-10-26T06:59:57.360Z,323.55
2022-10-26T07:02:25.992Z,459.23
2022-10-26T07:04:53.851Z,329.15
2022-10-26T07:07:23.658Z,181.25
2022-10-26T07:09:51.270Z,218.63
2022-10-26T07:12:19.353Z,175.57
2022-10-26T07:14:46.858Z,108.03
2022-10-26T07:17:16.033Z,113.88
2022-10-26T07:19:45.162Z,122.30
2022-10-26T07:22:12.683Z,118.43
2022-10-26T07:24:40.390Z,115.68
2022-10-26T07:27:10.807Z,134.55
2022-10-26T07:29:40.635Z,113.20
2022-10-26T07:32:08.636Z,129.10
2022-10-26T07:34:36.394Z,116.10
2022-10-26T07:37:04.440Z,113.82
2022-10-26T07:39:34.925Z,90.68
2022-10-26T07:42:02.598Z,92.15
2022-10-26T07:44:31.716Z,68.40
2022-10-26T07:46:59.265Z,81.15
2022-10-26T07:49:27.878Z,80.63
2022-10-26T07:51:55.961Z,66.53
2022-10-26T07:54:23.929Z,51.55
2022-10-26T07:56:51.880Z,74.20
2022-10-26T07:59:20.043Z,55.92
2022-10-26T08:01:48.191Z,68.60
2022-10-26T08:04:17.099Z,65.53
2022-10-26T08:06:44.969Z,67.10
2022-10-26T08:09:12.491Z,74.43
2022-10-26T08:11:40.086Z,61.83
2022-10-26T08:14:16.583Z,59.97
2022-10-26T08:19:26.140Z,61.90
2022-10-26T08:21:55.429Z,61.55
2022-10-26T08:24:23.178Z,67.45
2022-10-26T08:26:50.955Z,58.53
2022-10-26T08:29:19.143Z,64.03
2022-10-26T08:31:51.040Z,49.17
2022-10-26T08:34:20.549Z,39.92
2022-10-26T08:36:48.750Z,48.78
2022-10-26T08:39:16.690Z,41.67
2022-10-26T08:41:47.565Z,57.75
2022-10-26T08:44:30.389Z,64.60
2022-10-26T08:47:06.536Z,52.47
2022-10-26T08:49:43.656Z,34.90
2022-10-26T08:52:18.319Z,31.55
2022-10-26T08:54:52.013Z,29.13
2022-10-26T08:57:40.058Z,35.95
2022-10-26T09:00:22.937Z,44.55
2022-10-26T09:02:58.418Z,37.75
2022-10-26T09:05:38.924Z,34.78
2022-10-26T09:08:16.637Z,32.55
2022-10-26T09:11:08.808Z,45.70
2022-10-26T09:13:56.380Z,34.90
2022-10-26T09:16:55.404Z,33.78
2022-10-26T09:19:57.958Z,26.90
2022-10-26T09:22:50.009Z,38.80
2022-10-26T09:25:24.581Z,44.45
2022-10-26T09:28:00.888Z,40.15
2022-10-26T09:30:30.533Z,28.15
2022-10-26T09:33:06.153Z,36.17
2022-10-26T09:35:50.846Z,25.73
2022-10-26T09:38:35.584Z,33.95
2022-10-26T09:41:31.994Z,28.10
2022-10-26T09:44:10.437Z,28.52
2022-10-26T09:46:54.375Z,23.45
2022-10-26T09:49:31.064Z,19.83
2022-10-26T09:52:03.776Z,23.92
2022-10-26T09:54:33.457Z,21.88
2022-10-26T09:57:04.308Z,20.35
2022-10-26T09:59:38.816Z,15.27
2022-10-26T10:02:35.024Z,19.65
2022-10-26T10:05:32.568Z,14.68
2022-10-26T10:08:15.216Z,13.43
2022-10-26T10:11:06.054Z,14.13
2022-10-26T10:13:36.976Z,9.65
2022-10-26T10:16:31.464Z,9.30
2022-10-26T10:19:00.442Z,9.13
2022-10-26T10:21:38.659Z,17.23
2022-10-26T10:24:24.639Z,14.10
2022-10-26T10:27:05.228Z,12.30
2022-10-26T10:29:35.235Z,8.48
2022-10-26T10:32:04.260Z,8.48
2022-10-26T10:34:32.885Z,10.00
2022-10-26T10:37:01.688Z,9.65
2022-10-26T10:39:38.005Z,11.10
2022-10-26T10:42:21.733Z,17.98
2022-10-26T10:44:56.126Z,17.02
2022-10-26T10:47:26.691Z,15.80
2022-10-26T10:50:02.776Z,9.93
2022-10-26T10:52:32.653Z,11.60
2022-10-26T10:55:23.397Z,14.48
2022-10-26T10:58:05.418Z,15.95
2022-10-26T11:00:37.556Z,13.13
2022-10-26T11:03:14.469Z,12.65
2022-10-26T11:05:58.522Z,8.43
2022-10-26T11:08:47.833Z,10.43
2022-10-26T11:11:26.009Z,9.82
2022-10-26T11:13:56.740Z,11.40
2022-10-26T11:16:53.813Z,9.05
2022-10-26T11:19:50.378Z,9.10
2022-10-26T11:22:24.857Z,10.98
2022-10-26T11:24:55.177Z,11.70
2022-10-26T11:27:30.396Z,13.52
2022-10-26T11:30:14.617Z,8.40
2022-10-26T11:32:48.538Z,12.43
2022-10-26T11:35:49.024Z,7.95
2022-10-26T11:38:39.240Z,10.27
2022-10-26T11:41:36.977Z,9.82
2022-10-26T11:44:30.625Z,9.00
2022-10-26T11:47:04.113Z,7.57
2022-10-26T11:50:06.852Z,6.30
2022-10-26T11:52:43.456Z,9.50
2022-10-26T11:55:12.321Z,4.22
2022-10-26T11:57:42.153Z,5.22
2022-10-26T12:00:20.988Z,6.93
2022-10-26T12:03:14.991Z,6.65
2022-10-26T12:05:51.803Z,6.13
2022-10-26T12:08:54.164Z,5.97
2022-10-26T12:11:41.028Z,4.88
2022-10-26T12:14:31.047Z,5.68
2022-10-26T12:17:11.421Z,7.38
2022-10-26T13:05:29.278Z,5.40
2022-10-26T13:15:08.188Z,6.97
2022-10-26T14:39:29.841Z,15.30
2022-10-26T14:41:58.563Z,9.90
2022-10-26T14:44:26.529Z,13.18
2022-10-26T14:46:54.651Z,11.40
2022-10-26T14:49:27.905Z,11.15
2022-10-26T14:52:00.018Z,12.80
2022-10-26T14:54:29.314Z,11.80
2022-10-26T14:57:08.984Z,12.77
2022-10-26T14:59:36.605Z,12.38
2022-10-26T15:02:24.632Z,13.25
2022-10-26T15:05:16.989Z,12.68
2022-10-26T15:07:45.926Z,11.68
2022-10-26T15:10:38.460Z,11.85
2022-10-26T15:13:44.961Z,15.10
2022-10-26T15:16:23.541Z,14.13
2022-10-26T15:18:54.620Z,12.25
2022-10-26T15:21:35.390Z,12.50
2022-10-26T15:24:04.182Z,16.00
2022-10-26T15:26:32.124Z,15.85
2022-10-26T15:28:59.753Z,18.35
2022-10-26T15:31:33.632Z,14.60
2022-10-26T15:34:03.804Z,15.57
2022-10-26T15:36:33.391Z,16.45
2022-10-26T15:39:01.345Z,17.40
2022-10-26T15:41:44.883Z,16.50
2022-10-26T15:44:22.002Z,18.70
2022-10-26T15:46:50.382Z,10.05
2022-10-26T15:49:20.604Z,10.30
2022-10-26T15:51:49.229Z,8.23
2022-10-26T15:54:17.034Z,8.20
2022-10-26T15:56:45.204Z,8.50
2022-10-26T15:59:18.140Z,8.52
2022-10-26T16:01:45.800Z,8.05
2022-10-26T16:04:13.452Z,7.70
2022-10-26T16:06:42.635Z,8.10
2022-10-26T16:09:18.113Z,7.65
2022-10-26T16:11:45.820Z,8.10
2022-10-26T16:14:13.309Z,8.18
2022-10-26T16:16:41.520Z,7.03
2022-10-26T16:19:30.867Z,8.00
2022-10-26T16:21:58.335Z,11.73
2022-10-26T16:24:27.298Z,11.25
2022-10-26T16:26:55.261Z,7.20
2022-10-26T16:29:22.742Z,9.00
2022-10-26T16:31:50.504Z,8.75
2022-10-26T16:34:20.514Z,8.38
2022-10-26T16:36:48.343Z,6.50
2022-10-26T16:39:15.999Z,7.75
2022-10-26T16:41:43.620Z,9.15
2022-10-26T16:44:13.120Z,8.73
2022-10-26T16:46:40.558Z,6.82
2022-10-26T16:49:08.070Z,9.38
2022-10-26T16:51:35.571Z,9.05
2022-10-26T16:54:02.999Z,7.50
2022-10-26T16:56:30.824Z,8.75
2022-10-26T16:58:58.320Z,9.35
2022-10-26T17:01:26.864Z,10.15
2022-10-26T17:03:54.892Z,13.23
2022-10-26T17:06:22.527Z,8.88
2022-10-26T17:08:50.041Z,9.75
2022-10-26T17:11:20.711Z,9.20
2022-10-26T17:13:52.820Z,8.38
2022-10-26T17:16:21.835Z,9.45
2022-10-26T17:18:49.660Z,11.25
2022-10-26T17:21:19.289Z,13.48
2022-10-26T17:23:48.241Z,11.00
2022-10-26T17:26:15.702Z,8.93
2022-10-26T17:28:43.749Z,11.90
2022-10-26T17:31:13.685Z,10.30
2022-10-26T17:33:45.524Z,12.15
2022-10-26T17:36:14.215Z,10.50
2022-10-26T17:38:43.037Z,9.80
2022-10-26T17:41:12.851Z,9.85
2022-10-26T17:43:42.106Z,10.98
2022-10-26T17:46:15.302Z,9.80
2022-10-26T17:48:43.797Z,10.02
2022-10-26T17:51:17.910Z,8.80
2022-10-26T17:53:52.425Z,9.50
2022-10-26T17:56:24.751Z,9.77
2022-10-26T17:58:59.140Z,7.50
2022-10-26T18:01:28.075Z,11.48
2022-10-26T18:03:55.925Z,10.15
2022-10-26T18:06:23.855Z,10.07
2022-10-26T18:08:51.519Z,12.40
2022-10-26T18:11:26.551Z,12.57
2022-10-26T18:13:56.228Z,12.32
2022-10-26T18:16:25.201Z,12.27
2022-10-26T18:19:01.597Z,10.55
2022-10-26T18:21:32.241Z,12.70
2022-10-26T18:23:59.931Z,14.45
2022-10-26T18:26:29.600Z,12.65
2022-10-26T18:29:01.672Z,14.57
2022-10-26T18:31:31.054Z,11.88
2022-10-26T18:34:01.015Z,16.42
2022-10-26T18:36:29.797Z,11.57
2022-10-26T18:38:58.272Z,13.32
2022-10-26T18:41:26.431Z,12.07
2022-10-26T18:43:58.824Z,13.07
2022-10-26T18:46:30.360Z,12.43
2022-10-26T18:49:01.047Z,12.43
2022-10-26T18:51:34.201Z,12.55
2022-10-26T18:54:02.475Z,12.90
2022-10-26T18:56:29.963Z,14.98
2022-10-26T18:59:00.474Z,15.18
2022-10-26T19:01:33.618Z,13.60
2022-10-26T19:04:06.849Z,14.45
2022-10-26T19:06:40.146Z,13.57
2022-10-26T19:09:09.303Z,15.75
2022-10-26T19:11:38.232Z,17.65
2022-10-26T19:14:10.091Z,14.77
2022-10-26T19:16:47.189Z,13.45
2022-10-26T19:19:16.749Z,16.25
2022-10-26T19:21:45.590Z,15.00
2022-10-26T19:24:17.671Z,10.77
2022-10-26T19:26:45.826Z,12.45
2022-10-26T19:29:16.022Z,11.00
2022-10-26T19:31:51.032Z,9.45
2022-10-26T19:34:18.874Z,12.15
2022-10-26T19:36:47.379Z,10.10
2022-10-26T19:39:16.700Z,9.10
2022-10-26T19:41:45.708Z,9.15
2022-10-26T19:44:15.239Z,10.35
2022-10-26T19:46:44.006Z,9.85
2022-10-26T19:49:13.056Z,9.68
2022-10-26T19:51:41.000Z,11.27
2022-10-26T19:54:08.930Z,12.98
2022-10-26T19:56:37.849Z,8.63
2022-10-26T19:59:06.801Z,8.60
2022-10-26T20:01:35.295Z,7.72
2022-10-26T20:04:03.200Z,8.50
2022-10-26T20:06:31.165Z,8.10
2022-10-26T20:09:00.327Z,7.45
2022-10-26T20:11:27.983Z,6.45
2022-10-26T20:13:56.595Z,5.05
2022-10-26T20:16:24.774Z,5.78
2022-10-26T20:18:52.202Z,3.80
2022-10-26T20:21:19.739Z,4.70
2022-10-26T20:23:47.273Z,4.20
2022-10-26T20:26:18.497Z,5.75
2022-10-26T20:28:49.091Z,3.75
2022-10-26T20:31:16.705Z,5.47
2022-10-26T20:33:44.182Z,3.15
2022-10-26T20:36:11.930Z,6.68
2022-10-26T20:38:40.393Z,5.43
2022-10-26T20:41:12.339Z,8.23
2022-10-26T20:43:40.968Z,7.15
2022-10-26T20:46:17.621Z,6.32
2022-10-26T20:48:45.354Z,7.05
2022-10-26T20:51:26.536Z,5.55
2022-10-26T20:54:12.020Z,6.43
2022-10-26T20:56:42.345Z,3.53
2022-10-26T20:59:28.580Z,5.70
2022-10-26T21:01:56.337Z,6.15
2022-10-26T21:04:23.982Z,8.02
2022-10-26T21:06:51.401Z,2.95
2022-10-26T21:09:20.233Z,8.20
2022-10-26T21:11:49.587Z,11.65
2022-10-26T21:14:17.085Z,8.98
2022-10-26T21:16:44.871Z,7.32
2022-10-26T21:19:12.429Z,10.10
2022-10-26T21:21:39.851Z,9.40
2022-10-26T21:24:08.079Z,6.90
2022-10-26T21:26:35.884Z,6.88
2022-10-26T21:29:03.527Z,6.70
2022-10-26T21:31:31.243Z,8.43
2022-10-26T21:33:58.796Z,7.57
2022-10-26T21:36:31.609Z,6.50
2022-10-26T21:38:59.408Z,3.65
2022-10-26T21:41:26.911Z,7.28
2022-10-26T21:44:03.470Z,4.05
2022-10-26T21:46:40.317Z,5.35
2022-10-26T21:49:07.793Z,4.57
2022-10-26T21:51:35.831Z,2.55
2022-10-26T21:54:05.070Z,2.63
2022-10-26T21:56:32.924Z,2.88
2022-10-26T21:59:06.333Z,0.60
2022-10-26T22:01:34.339Z,0.57
2022-10-26T22:04:01.844Z,2.42
2022-10-26T22:06:29.409Z,2.13
2022-10-26T22:08:56.985Z,1.48
2022-10-26T22:11:25.737Z,1.85
2022-10-26T22:13:53.488Z,1.90
2022-10-26T22:16:26.936Z,2.20
2022-10-26T22:18:56.447Z,2.72
2022-10-26T22:21:26.629Z,1.75
2022-10-26T22:23:54.504Z,1.00
2022-10-26T22:26:24.674Z,2.05
2022-10-26T22:28:54.864Z,1.88
2022-10-26T22:31:34.941Z,1.00
2022-10-26T22:34:15.522Z,1.90
2022-10-26T22:36:43.506Z,2.30
2022-10-26T22:41:53.412Z,1.50
2022-10-26T22:44:20.992Z,1.92
2022-10-26T22:46:48.904Z,1.10
2022-10-26T22:49:17.969Z,2.30
2022-10-26T22:51:45.657Z,2.35
2022-10-26T22:54:13.340Z,1.50
2022-10-26T22:56:41.001Z,2.20
2022-10-26T22:59:08.627Z,3.25
2022-10-26T23:01:41.895Z,1.70
2022-10-26T23:04:16.395Z,1.98
2022-10-26T23:06:43.995Z,1.40
2022-10-26T23:09:11.436Z,1.40
2022-10-26T23:11:42.201Z,2.45
2022-10-26T23:14:10.129Z,2.72
2022-10-26T23:16:40.586Z,1.35
2022-10-26T23:19:11.123Z,1.25
2022-10-26T23:21:38.640Z,1.95
2022-10-26T23:24:06.320Z,2.30
2022-10-26T23:26:35.839Z,1.98
2022-10-26T23:29:07.779Z,0.68
2022-10-26T23:31:37.276Z,1.35
2022-10-26T23:34:04.770Z,2.00
2022-10-26T23:36:33.492Z,3.83
2022-10-26T23:39:01.149Z,1.30
2022-10-26T23:44:10.962Z,1.85
2022-10-26T23:46:39.357Z,2.17
2022-10-26T23:49:07.301Z,3.00
2022-10-26T23:51:35.138Z,2.60
2022-10-26T23:54:02.647Z,2.50
2022-10-26T23:56:31.778Z,2.35
